Time;durP1;ratioP1;P1;durP2;ratioP2;P2;SDS_P1;SDS_P2;PMS_P1;PMS_P2;Temp;Humidity;BMP_temperature;BMP_pressure;BME280_temperature;BME280_humidity;BME280_pressure;Samples;Min_cycle;Max_cycle;Signal;HPM_P1;HPM_P2
2021/07/08 00:01:37;;;;;;;2.90;1.70;;;;;;;16.80;73.60;100486.94;4959089;28;20039;-75
2021/07/08 00:04:09;;;;;;;1.45;1.35;;;;;;;16.75;73.59;100482.34;4971503;28;20033;-78
2021/07/08 00:06:54;;;;;;;2.53;2.03;;;;;;;16.79;73.44;100486.09;4982688;28;20026;-78
2021/07/08 00:09:20;;;;;;;;;;;;;;;16.89;72.80;100505.28;4968143;28;20065;-77
2021/07/08 00:11:59;;;;;;;;;;;;;;;16.80;73.29;100507.06;4958946;28;19922;-77
2021/07/08 00:14:27;;;;;;;3.80;1.90;;;;;;;16.56;73.38;100483.25;4957324;28;20009;-79
2021/07/08 00:17:25;;;;;;;4.28;1.58;;;;;;;16.47;73.73;100476.78;4950873;28;20033;-77
2021/07/08 00:23:15;;;;;;;3.55;1.52;;;;;;;16.69;73.62;100505.63;4940494;28;20038;-77
2021/07/08 00:25:42;;;;;;;9.27;1.90;;;;;;;16.65;73.93;100510.16;4968340;28;20032;-77
2021/07/08 00:28:19;;;;;;;5.32;2.20;;;;;;;16.48;74.15;100492.22;4975238;28;20030;-76
2021/07/08 00:31:36;;;;;;;6.93;1.52;;;;;;;16.56;74.29;100518.31;4960645;28;20027;-77
2021/07/08 00:34:56;;;;;;;;;;;;;;;;;;;;;
2021/07/08 00:41:44;;;;;;;;;;;;;;;;;;;;;
2021/07/08 00:44:28;;;;;;;2.80;1.13;;;;;;;15.92;74.48;100471.13;4858388;29;20131;-78
2021/07/08 00:49:47;;;;;;;1.52;1.40;;;;;;;15.86;74.70;100495.22;4962533;28;20039;-75
2021/07/08 00:52:13;;;;;;;4.25;1.90;;;;;;;15.91;75.01;100508.09;4957371;28;20105;-76
2021/07/08 00:54:39;;;;;;;7.32;1.92;;;;;;;15.68;75.32;100488.56;4964831;28;20054;-75
2021/07/08 00:57:18;;;;;;;1.65;1.40;;;;;;;15.82;75.36;100507.97;4954193;28;20459;-76
2021/07/08 01:03:35;;;;;;;;;;;;;;;;;;;;;
2021/07/08 01:06:22;;;;;;;3.60;1.45;;;;;;;15.57;76.03;100493.41;4972402;28;20101;-77
2021/07/08 01:09:02;;;;;;;2.95;2.17;;;;;;;15.79;75.83;100519.59;4957635;28;20034;-76
2021/07/08 01:12:04;;;;;;;1.23;1.10;;;;;;;15.81;76.07;100520.09;4954749;28;20056;-77
2021/07/08 01:17:48;;;;;;;2.53;1.52;;;;;;;15.73;75.96;100485.72;4953124;28;20236;-77
2021/07/08 01:20:36;;;;;;;1.48;1.13;;;;;;;15.83;75.85;100507.66;4953448;28;20027;-78
2021/07/08 01:23:09;;;;;;;2.95;1.10;;;;;;;15.99;75.73;100526.69;4961615;28;20030;-78
2021/07/08 01:25:43;;;;;;;1.75;0.65;;;;;;;15.87;75.60;100508.69;4963643;28;20081;-78
2021/07/08 01:28:12;;;;;;;3.17;1.50;;;;;;;15.90;75.44;100509.22;4967020;28;20067;-78
2021/07/08 01:30:49;;;;;;;;;;;;;;;;;;;;;
2021/07/08 01:36:03;;;;;;;;;;;;;;;16.26;75.25;100530.72;4967513;28;20035;-77
2021/07/08 01:38:29;;;;;;;1.75;1.10;;;;;;;16.21;75.55;100540.69;4979563;28;19914;-77
2021/07/08 01:40:55;;;;;;;0.88;0.88;;;;;;;16.17;75.08;100528.63;4960282;28;20131;-79
2021/07/08 01:43:22;;;;;;;0.88;0.70;;;;;;;16.26;74.95;100536.22;4954176;28;20046;-79
2021/07/08 01:46:07;;;;;;;;;;;;;;;;;;;;;
2021/07/08 01:48:34;;;;;;;5.85;1.92;;;;;;;16.19;74.83;100537.44;4975872;28;20087;-77
2021/07/08 01:51:06;;;;;;;4.43;2.42;;;;;;;16.09;75.31;100537.59;4966959;28;20058;-79
2021/07/08 01:53:32;;;;;;;7.75;3.25;;;;;;;16.05;75.19;100547.59;4975327;28;20115;-77
2021/07/08 01:56:02;;;;;;;4.55;2.28;;;;;;;16.05;75.72;100553.91;4974902;28;20039;-79
2021/07/08 01:58:28;;;;;;;4.43;2.35;;;;;;;15.99;76.17;100555.13;4964961;28;20033;-79
2021/07/08 02:02:06;;;;;;;14.15;2.58;;;;;;;15.72;75.65;100506.13;4971069;28;20043;-78
2021/07/08 02:04:32;;;;;;;2.38;2.05;;;;;;;15.78;76.13;100527.03;4890944;29;20047;-78
2021/07/08 02:07:00;;;;;;;1.80;1.60;;;;;;;15.93;76.20;100549.97;4885448;29;20041;-80
2021/07/08 02:09:48;;;;;;;2.55;2.35;;;;;;;15.93;76.05;100549.97;4877566;29;20032;-79
2021/07/08 02:12:22;;;;;;;2.35;2.15;;;;;;;15.94;76.64;100557.13;4882901;29;20134;-78
2021/07/08 02:14:58;;;;;;;;;;;;;;;;;;;;;
2021/07/08 02:17:23;;;;;;;7.25;1.98;;;;;;;15.92;76.24;100545.59;4987404;28;20045;-76
2021/07/08 02:20:08;;;;;;;;;;;;;;;;;;;;;
2021/07/08 02:22:34;;;;;;;1.50;1.40;;;;;;;15.83;75.81;100513.16;4974420;28;20450;-80
2021/07/08 02:25:04;;;;;;;0.77;0.77;;;;;;;15.90;75.94;100520.25;4974296;28;20027;-78
2021/07/08 02:28:03;;;;;;;;;;;;;;;;;;;;;
2021/07/08 02:30:49;;;;;;;0.90;0.90;;;;;;;16.05;75.41;100531.03;4980922;28;20062;-79
2021/07/08 02:33:14;;;;;;;0.80;0.80;;;;;;;16.19;75.64;100553.16;4964657;28;20066;-79
2021/07/08 02:35:40;;;;;;;1.40;1.30;;;;;;;16.15;75.41;100541.91;4981230;28;20473;-78
2021/07/08 02:38:06;;;;;;;1.65;1.52;;;;;;;16.20;75.81;100544.56;4969888;28;20030;-80
2021/07/08 02:40:34;;;;;;;5.90;1.70;;;;;;;16.14;75.38;100534.75;4965869;28;20018;-79
2021/07/08 02:43:12;;;;;;;;;;;;;;;;;;;;;
2021/07/08 02:45:42;;;;;;;0.90;0.90;;;;;;;16.27;75.47;100548.91;4969669;28;20151;-81
2021/07/08 02:48:22;;;;;;;;;;;;;;;;;;;;;
2021/07/08 02:50:54;;;;;;;0.55;0.55;;;;;;;16.07;75.09;100523.28;4977280;28;20082;-82
2021/07/08 02:53:19;;;;;;;1.13;0.52;;;;;;;16.27;75.01;100548.91;4967156;28;20117;-82
2021/07/08 02:56:18;;;;;;;;;;;;;;;;;;;;;
2021/07/08 02:58:47;;;;;;;1.55;0.70;;;;;;;16.19;74.88;100531.91;4968772;28;20111;-80
2021/07/08 03:01:24;;;;;;;3.03;1.08;;;;;;;16.28;74.77;100553.28;4962694;28;20019;-80
2021/07/08 03:04:05;;;;;;;0.75;0.75;;;;;;;16.17;74.81;100545.19;4970277;28;20078;-79
2021/07/08 03:10:59;;;;;;;0.95;0.88;;;;;;;16.16;74.65;100554.56;4853010;29;20067;-78
2021/07/08 03:24:58;;;;;;;1.23;1.17;;;;;;;15.63;74.99;100552.03;4754608;30;20102;-76
2021/07/08 03:28:23;;;;;;;0.98;0.98;;;;;;;15.39;75.52;100535.53;4778564;29;20056;-76
2021/07/08 03:31:41;;;;;;;0.98;0.73;;;;;;;15.40;75.09;100549.03;4827180;29;20045;-75
2021/07/08 03:34:39;;;;;;;;;;;;;;;;;;;;;
2021/07/08 03:37:08;;;;;;;0.75;0.75;;;;;;;14.99;75.61;100519.22;4949193;28;20098;-75
2021/07/08 03:43:34;;;;;;;3.42;1.77;;;;;;;15.03;75.64;100556.09;4986858;28;20050;-76
2021/07/08 03:53:06;;;;;;;5.40;1.90;;;;;;;14.71;76.59;100552.00;4902042;29;20431;-75
2021/07/08 03:59:09;;;;;;;2.67;2.10;;;;;;;14.74;77.28;100570.69;4899098;29;20059;-77
2021/07/08 04:01:54;;;;;;;2.72;2.38;;;;;;;14.59;77.50;100554.31;4899039;29;20037;-75
2021/07/08 04:04:37;;;;;;;;;;;;;;;;;;;;;
2021/07/08 04:07:05;;;;;;;2.63;1.67;;;;;;;14.68;77.44;100576.56;4978248;28;19977;-75
2021/07/08 04:09:30;;;;;;;3.40;2.17;;;;;;;14.78;77.72;100582.78;4954373;28;20034;-75
2021/07/08 04:11:56;;;;;;;2.25;2.00;;;;;;;14.65;78.09;100561.44;4964329;28;20102;-75
2021/07/08 04:14:45;;;;;;;2.25;2.10;;;;;;;14.73;77.69;100574.56;4959598;28;20053;-76
2021/07/08 04:17:10;;;;;;;8.20;2.70;;;;;;;14.82;77.93;100594.84;4959276;28;20023;-76
2021/07/08 04:19:38;;;;;;;2.58;2.47;;;;;;;14.69;78.08;100570.75;4968055;28;20027;-75
2021/07/08 04:22:04;;;;;;;2.30;2.20;;;;;;;14.80;78.52;100591.56;4966630;28;20074;-75
2021/07/08 04:24:30;;;;;;;2.00;1.90;;;;;;;14.86;78.01;100605.28;4955695;28;20027;-75
2021/07/08 04:26:55;;;;;;;4.25;1.90;;;;;;;14.83;78.33;100593.75;4960292;28;20074;-74
2021/07/08 04:29:21;;;;;;;1.45;1.10;;;;;;;14.82;78.44;100589.34;4958129;28;20027;-76
2021/07/08 04:31:46;;;;;;;1.00;1.00;;;;;;;14.86;78.53;100595.06;4976008;28;20031;-75
2021/07/08 04:34:12;;;;;;;1.02;0.90;;;;;;;14.80;77.87;100594.31;4947184;28;20027;-76
2021/07/08 04:36:37;;;;;;;1.58;1.00;;;;;;;14.78;78.19;100599.28;4926586;28;20061;-76
2021/07/08 04:39:03;;;;;;;1.55;1.40;;;;;;;14.83;78.18;100591.00;4961008;28;20034;-76
2021/07/08 04:41:29;;;;;;;2.92;1.10;;;;;;;14.93;78.03;100606.56;4944367;28;20031;-74
2021/07/08 04:43:54;;;;;;;4.53;1.45;;;;;;;14.93;78.44;100603.00;4974798;28;20097;-76
2021/07/08 04:46:20;;;;;;;3.97;1.58;;;;;;;15.05;78.21;100613.63;4980523;28;20381;-74
2021/07/08 04:48:46;;;;;;;1.30;1.20;;;;;;;15.09;77.85;100601.72;4948927;28;20031;-75
2021/07/08 04:51:12;;;;;;;2.08;1.38;;;;;;;15.16;77.76;100601.41;4944728;28;20067;-76
2021/07/08 04:53:38;;;;;;;1.77;1.67;;;;;;;15.14;77.90;100590.66;4962522;28;20031;-76
2021/07/08 04:56:05;;;;;;;1.42;1.42;;;;;;;15.30;77.56;100605.09;4933105;28;20121;-76
2021/07/08 04:58:30;;;;;;;1.45;1.35;;;;;;;15.33;77.29;100596.22;4961192;28;20051;-75
2021/07/08 05:04:06;;;;;;;4.13;2.08;;;;;;;15.43;77.20;100592.50;4880999;29;20053;-79
2021/07/08 05:06:57;;;;;;;1.58;1.58;;;;;;;15.48;77.34;100600.72;4881486;29;20408;-79
2021/07/08 05:09:23;;;;;;;2.55;1.75;;;;;;;15.53;77.37;100592.38;4942982;28;20097;-76
2021/07/08 05:11:48;;;;;;;3.10;2.40;;;;;;;15.62;77.16;100614.59;4950539;28;20023;-77
2021/07/08 05:14:14;;;;;;;1.38;1.38;;;;;;;15.53;76.98;100592.38;4978076;28;20030;-78
2021/07/08 05:16:39;;;;;;;1.45;1.40;;;;;;;15.62;76.80;100602.75;4954203;28;20087;-77
2021/07/08 05:19:53;;;;;;;1.90;1.80;;;;;;;15.38;76.99;100572.50;4963339;28;20012;-76
2021/07/08 05:22:23;;;;;;;2.38;1.70;;;;;;;15.36;76.45;100592.88;4964898;28;20029;-76
2021/07/08 05:24:49;;;;;;;2.03;1.92;;;;;;;15.45;76.74;100617.84;4966141;28;20028;-77
2021/07/08 05:27:18;;;;;;;1.60;1.50;;;;;;;15.44;76.88;100626.41;4957771;28;20028;-77
2021/07/08 05:33:07;;;;;;;4.55;2.20;;;;;;;15.44;77.11;100638.25;4984068;28;20034;-77
2021/07/08 05:35:53;;;;;;;1.70;1.60;;;;;;;15.30;77.30;100616.13;4973684;28;20051;-77
2021/07/08 05:38:22;;;;;;;4.03;1.95;;;;;;;15.34;77.24;100621.84;4974135;28;20532;-78
2021/07/08 05:41:11;;;;;;;2.70;1.38;;;;;;;15.61;76.77;100642.47;4932794;28;20035;-77
2021/07/08 05:44:31;;;;;;;;;;;;;;;;;;;;;
2021/07/08 05:46:59;;;;;;;2.40;2.28;;;;;;;15.68;76.65;100637.41;4968578;28;20110;-77
2021/07/08 05:49:59;;;;;;;2.65;2.45;;;;;;;15.95;76.52;100655.31;4965088;28;20030;-77
2021/07/08 05:52:25;;;;;;;2.95;2.75;;;;;;;15.88;76.21;100664.75;4947511;28;20026;-78
2021/07/08 05:54:58;;;;;;;3.10;1.92;;;;;;;15.94;76.16;100672.97;4943257;29;20062;-77
2021/07/08 05:57:57;;;;;;;2.08;1.85;;;;;;;15.94;76.21;100648.13;4940057;28;20031;-78
2021/07/08 06:00:39;;;;;;;1.67;1.60;;;;;;;16.12;76.02;100661.13;4963741;28;20034;-76
2021/07/08 06:03:05;;;;;;;2.30;2.10;;;;;;;16.16;75.71;100664.91;4973423;28;20035;-77
2021/07/08 06:05:31;;;;;;;1.90;1.80;;;;;;;16.41;75.49;100682.22;4976448;28;20018;-75
2021/07/08 06:08:42;;;;;;;;;;;;;;;;;;;;;
2021/07/08 06:12:22;;;;;;;;;;;;;;;;;;;;;
2021/07/08 06:15:20;;;;;;;6.53;1.80;;;;;;;16.73;74.32;100683.38;4869660;28;20122;-80
2021/07/08 06:18:25;;;;;;;;;;;;;;;;;;;;;
2021/07/08 06:21:18;;;;;;;;;;;;;;;;;;;;;
2021/07/08 06:27:47;;;;;;;;;;;;;;;;;;;;;
2021/07/08 06:30:39;;;;;;;7.80;2.03;;;;;;;17.01;73.42;100686.25;4951722;28;20117;-80
2021/07/08 06:33:11;;;;;;;4.22;1.52;;;;;;;17.12;72.73;100684.97;4963904;28;20134;-79
2021/07/08 06:36:35;;;;;;;1.90;1.80;;;;;;;17.29;72.15;100684.38;4968922;28;20038;-79
2021/07/08 06:40:00;;;;;;;3.72;1.35;;;;;;;17.50;71.68;100695.88;4930298;29;20106;-79
2021/07/08 06:42:38;;;;;;;;;;;;;;;;;;;;;
2021/07/08 06:45:12;;;;;;;2.63;2.00;;;;;;;17.45;71.09;100694.03;4865981;29;20128;-75
2021/07/08 06:50:54;;;;;;;2.47;2.38;;;;;;;17.63;70.46;100738.47;4935189;28;20507;-74
2021/07/08 06:53:55;;;;;;;3.22;3.00;;;;;;;17.65;70.57;100732.63;4960830;28;20106;-84
2021/07/08 06:56:34;;;;;;;1.52;1.52;;;;;;;17.67;71.07;100728.44;4978964;28;20023;-81
2021/07/08 06:59:32;;;;;;;5.93;2.38;;;;;;;17.74;70.41;100722.50;4954838;28;20037;-75
2021/07/08 07:02:06;;;;;;;4.63;2.15;;;;;;;17.84;69.81;100718.72;4956092;28;20554;-76
2021/07/08 07:04:35;;;;;;;3.05;2.40;;;;;;;17.91;69.72;100710.84;4969222;28;20093;-75
2021/07/08 07:07:08;;;;;;;2.65;2.45;;;;;;;17.99;69.42;100712.06;4955883;28;20027;-76
2021/07/08 07:09:36;;;;;;;2.30;2.10;;;;;;;18.21;69.49;100726.00;4973239;28;20029;-77
2021/07/08 07:12:02;;;;;;;1.90;1.80;;;;;;;18.40;69.18;100739.69;4960055;28;20039;-76
2021/07/08 07:14:27;;;;;;;1.65;1.35;;;;;;;18.72;69.13;100734.25;4973593;28;20046;-75
2021/07/08 07:16:55;;;;;;;1.77;1.60;;;;;;;18.95;68.02;100740.63;4967160;28;20090;-75
2021/07/08 07:19:20;;;;;;;1.80;1.70;;;;;;;19.26;67.58;100737.94;4948325;28;20524;-76
2021/07/08 07:21:49;;;;;;;1.80;1.70;;;;;;;19.67;66.57;100734.03;4953391;28;20069;-76
2021/07/08 07:24:14;;;;;;;1.25;1.25;;;;;;;19.89;65.28;100726.81;4959234;28;20038;-78
2021/07/08 07:26:40;;;;;;;1.48;1.30;;;;;;;20.23;65.18;100730.81;4952796;28;20073;-77
2021/07/08 07:29:05;;;;;;;1.10;1.10;;;;;;;20.79;65.41;100744.09;4927480;28;20038;-75
2021/07/08 07:31:31;;;;;;;1.80;1.33;;;;;;;21.22;63.48;100743.25;4943967;28;20585;-76
2021/07/08 07:33:57;;;;;;;1.77;1.05;;;;;;;21.42;62.00;100745.31;4963664;28;20035;-76
2021/07/08 07:36:22;;;;;;;0.80;0.80;;;;;;;21.58;61.42;100750.34;4967523;28;20073;-76
2021/07/08 07:38:48;;;;;;;0.68;0.68;;;;;;;21.84;62.03;100741.09;4953432;28;20027;-77
2021/07/08 07:41:13;;;;;;;3.75;1.00;;;;;;;22.06;59.93;100757.50;4963722;28;20038;-77
2021/07/08 07:43:39;;;;;;;0.77;0.77;;;;;;;22.12;59.08;100742.25;4954899;28;20466;-77
2021/07/08 07:46:04;;;;;;;2.25;0.70;;;;;;;22.27;58.45;100751.19;4954802;28;20168;-77
2021/07/08 07:48:30;;;;;;;0.70;0.70;;;;;;;22.26;58.11;100755.09;4941313;28;20437;-77
2021/07/08 07:50:56;;;;;;;0.50;0.50;;;;;;;22.27;58.82;100753.97;4969827;28;20023;-77
2021/07/08 07:53:21;;;;;;;0.73;0.73;;;;;;;22.25;58.10;100751.50;4953323;28;20043;-76
2021/07/08 07:55:49;;;;;;;1.33;1.10;;;;;;;22.09;57.55;100748.50;4936014;28;20055;-77
2021/07/08 07:58:14;;;;;;;0.95;0.95;;;;;;;21.93;57.38;100759.38;4935476;28;20122;-76
2021/07/08 08:00:40;;;;;;;0.82;0.82;;;;;;;21.77;56.80;100764.69;4942413;28;20106;-77
2021/07/08 08:03:06;;;;;;;0.93;0.93;;;;;;;21.65;57.05;100759.00;4929692;28;20105;-78
2021/07/08 08:10:42;;;;;;;1.33;1.23;;;;;;;21.50;57.58;100759.53;4959438;28;20049;-77
2021/07/08 08:13:09;;;;;;;1.38;0.90;;;;;;;21.47;57.49;100771.31;4939861;28;20027;-77
2021/07/08 08:15:34;;;;;;;1.17;1.08;;;;;;;21.47;57.62;100776.91;4973058;28;20027;-78
2021/07/08 08:18:01;;;;;;;0.93;0.90;;;;;;;21.42;57.78;100781.47;4943335;28;20023;-77
2021/07/08 08:20:28;;;;;;;0.80;0.80;;;;;;;21.33;58.13;100772.31;4942530;28;20035;-77
2021/07/08 08:23:04;;;;;;;1.50;1.40;;;;;;;21.25;58.01;100765.63;4968834;28;20041;-77
2021/07/08 08:25:36;;;;;;;1.25;0.90;;;;;;;21.26;58.59;100772.00;4963467;28;20389;-76
2021/07/08 08:28:02;;;;;;;5.60;1.00;;;;;;;21.20;58.44;100763.03;4960541;28;20042;-78
2021/07/08 08:30:30;;;;;;;0.70;0.70;;;;;;;21.38;58.32;100772.16;4947429;28;20122;-76
2021/07/08 08:32:56;;;;;;;2.70;1.45;;;;;;;21.40;57.56;100778.19;4948519;28;20034;-77
2021/07/08 08:35:21;;;;;;;0.77;0.77;;;;;;;21.20;57.90;100748.31;4948942;29;20011;-76
2021/07/08 08:37:48;;;;;;;1.40;1.30;;;;;;;21.32;57.93;100769.88;4954763;28;20011;-78
2021/07/08 08:40:15;;;;;;;1.55;1.08;;;;;;;21.17;58.37;100769.25;4964608;28;20050;-77
2021/07/08 08:42:44;;;;;;;0.90;0.90;;;;;;;21.12;58.22;100771.41;4962578;28;20026;-78
2021/07/08 08:45:17;;;;;;;1.45;1.40;;;;;;;20.95;58.30;100772.22;4942268;28;20062;-78
2021/07/08 08:48:12;;;;;;;2.65;1.30;;;;;;;20.96;59.42;100779.44;4908391;28;20054;-75
2021/07/08 08:50:46;;;;;;;0.90;0.90;;;;;;;20.82;60.04;100776.78;4947629;28;20055;-76
2021/07/08 08:53:14;;;;;;;0.93;0.93;;;;;;;20.77;60.23;100782.53;4950572;28;20358;-76
2021/07/08 08:55:41;;;;;;;1.40;1.30;;;;;;;20.61;60.57;100780.19;4940100;28;20031;-77
2021/07/08 08:58:09;;;;;;;1.65;1.55;;;;;;;20.45;61.03;100787.38;4947462;28;20054;-76
2021/07/08 09:00:37;;;;;;;1.55;1.45;;;;;;;20.28;61.06;100788.97;4928618;28;20042;-78
2021/07/08 09:03:05;;;;;;;1.65;1.50;;;;;;;20.14;61.30;100789.09;4945963;28;20075;-76
2021/07/08 09:05:31;;;;;;;1.20;1.20;;;;;;;20.01;61.92;100788.06;4933849;29;20390;-75
2021/07/08 09:08:16;;;;;;;1.38;1.27;;;;;;;19.97;62.87;100789.03;4942278;28;20035;-78
2021/07/08 09:10:43;;;;;;;1.45;1.45;;;;;;;19.88;62.69;100786.22;4931712;29;20581;-75
2021/07/08 09:13:08;;;;;;;1.15;1.15;;;;;;;20.00;62.63;100800.28;4922230;29;20035;-78
2021/07/08 09:15:34;;;;;;;1.33;1.30;;;;;;;20.18;62.97;100789.25;4915128;29;20043;-76
2021/07/08 09:17:59;;;;;;;1.30;1.20;;;;;;;20.39;62.26;100798.63;4937916;28;20024;-77
2021/07/08 09:20:25;;;;;;;1.13;1.13;;;;;;;20.53;61.64;100798.50;4902740;29;20043;-76
2021/07/08 09:22:51;;;;;;;1.10;1.10;;;;;;;20.68;61.83;100796.41;4919584;28;20031;-77
2021/07/08 09:25:19;;;;;;;1.20;1.17;;;;;;;20.86;60.79;100805.56;4922805;29;20090;-76
2021/07/08 09:27:49;;;;;;;1.35;1.25;;;;;;;21.02;61.01;100798.38;4947305;28;20027;-75
2021/07/08 09:30:28;;;;;;;0.70;0.70;;;;;;;21.51;61.29;100806.53;4923328;28;22287;-76
2021/07/08 09:32:53;;;;;;;1.63;1.00;;;;;;;21.86;59.57;100802.78;4935739;28;20050;-75
2021/07/08 09:35:39;;;;;;;0.82;0.82;;;;;;;22.26;58.96;100802.47;4930199;28;20027;-77
2021/07/08 09:38:12;;;;;;;0.80;0.80;;;;;;;22.62;57.63;100815.06;4951112;28;20057;-76
2021/07/08 09:40:41;;;;;;;0.70;0.70;;;;;;;22.81;55.40;100811.81;4915742;28;20043;-78
2021/07/08 09:43:27;;;;;;;0.70;0.70;;;;;;;23.06;55.01;100806.34;4960081;28;20085;-77
2021/07/08 09:45:55;;;;;;;1.13;1.10;;;;;;;23.32;52.33;100811.72;4950009;28;20054;-76
2021/07/08 09:48:20;;;;;;;3.42;1.25;;;;;;;23.38;51.41;100801.97;4924240;28;20027;-76
2021/07/08 09:50:49;;;;;;;0.60;0.60;;;;;;;23.79;52.98;100816.94;4949372;28;20539;-76
2021/07/08 09:58:56;;;;;;;0.60;0.60;;;;;;;25.00;48.98;100817.56;4978622;28;20066;-75
2021/07/08 10:01:23;;;;;;;0.70;0.70;;;;;;;25.39;48.26;100817.91;4969263;28;20043;-76
2021/07/08 10:03:49;;;;;;;0.52;0.52;;;;;;;25.60;45.12;100817.69;4994787;28;20030;-78
2021/07/08 10:06:19;;;;;;;0.52;0.40;;;;;;;25.72;45.56;100814.00;4997533;28;20026;-76
2021/07/08 10:08:44;;;;;;;0.38;0.38;;;;;;;25.85;44.45;100801.53;4967098;28;20042;-76
2021/07/08 10:11:15;;;;;;;0.50;0.50;;;;;;;26.00;43.38;100822.34;4974042;28;20406;-76
2021/07/08 10:13:43;;;;;;;0.40;0.40;;;;;;;26.05;43.96;100821.25;4971982;28;20027;-77
2021/07/08 10:16:10;;;;;;;0.60;0.60;;;;;;;26.20;43.03;100823.22;4957311;28;20030;-77
2021/07/08 10:18:41;;;;;;;0.73;0.40;;;;;;;26.34;42.76;100828.34;4958229;28;20324;-76
2021/07/08 10:21:10;;;;;;;0.40;0.40;;;;;;;26.22;42.28;100812.47;4949681;28;20035;-77
2021/07/08 10:23:37;;;;;;;0.45;0.45;;;;;;;26.22;42.52;100820.88;4940768;28;20031;-78
2021/07/08 10:26:07;;;;;;;0.43;0.43;;;;;;;26.36;42.58;100820.41;4950505;28;20039;-78
2021/07/08 10:28:43;;;;;;;0.30;0.30;;;;;;;26.61;42.44;100826.59;4964512;28;20108;-76
2021/07/08 10:31:13;;;;;;;0.25;0.25;;;;;;;26.88;42.88;100829.59;4976225;28;20038;-77
2021/07/08 10:33:39;;;;;;;0.50;0.50;;;;;;;26.99;41.12;100825.03;4986712;28;20516;-78
2021/07/08 10:36:04;;;;;;;0.30;0.30;;;;;;;27.12;42.31;100827.72;4990862;28;20034;-78
2021/07/08 10:38:41;;;;;;;0.40;0.40;;;;;;;27.25;41.59;100826.38;4947648;29;20030;-77
2021/07/08 10:41:13;;;;;;;0.50;0.50;;;;;;;27.28;40.63;100824.81;4972635;28;20041;-78
2021/07/08 10:43:42;;;;;;;0.40;0.40;;;;;;;27.24;41.14;100809.91;4957065;28;20105;-78
2021/07/08 10:46:09;;;;;;;0.30;0.30;;;;;;;27.61;41.82;100809.41;4977861;28;20042;-77
2021/07/08 10:48:48;;;;;;;0.30;0.30;;;;;;;27.90;39.28;100815.53;4983290;28;20031;-77
2021/07/08 10:51:36;;;;;;;0.22;0.22;;;;;;;27.98;39.14;100826.56;4957867;28;20023;-77
2021/07/08 10:54:27;;;;;;;0.30;0.30;;;;;;;28.06;39.06;100818.25;4962062;28;20043;-78
2021/07/08 10:56:57;;;;;;;0.40;0.40;;;;;;;27.95;39.50;100813.22;4938633;28;20031;-77
2021/07/08 10:59:36;;;;;;;0.38;0.38;;;;;;;27.89;38.73;100808.28;4963290;28;20026;-78
2021/07/08 11:02:02;;;;;;;0.30;0.30;;;;;;;27.79;38.44;100818.97;4988509;28;20054;-77
2021/07/08 11:04:48;;;;;;;0.35;0.35;;;;;;;27.59;38.31;100806.97;4984657;28;20031;-79
2021/07/08 11:07:16;;;;;;;0.30;0.30;;;;;;;27.51;38.76;100816.44;4959146;29;20070;-80
2021/07/08 11:10:06;;;;;;;0.30;0.30;;;;;;;27.62;38.62;100805.41;4971748;28;20053;-80
2021/07/08 11:12:34;;;;;;;0.30;0.30;;;;;;;28.04;39.58;100811.00;4970313;28;20095;-79
2021/07/08 11:15:00;;;;;;;0.20;0.20;;;;;;;28.58;39.32;100810.16;4972505;28;20023;-79
2021/07/08 11:17:48;;;;;;;0.32;0.30;;;;;;;28.78;36.92;100802.44;4963041;28;20090;-78
2021/07/08 11:20:30;;;;;;;1.10;0.47;;;;;;;29.24;37.35;100817.13;4963351;28;20045;-79
2021/07/08 11:23:36;;;;;;;0.10;0.10;;;;;;;29.73;37.49;100817.19;4984736;28;20027;-80
2021/07/08 11:26:02;;;;;;;0.57;0.57;;;;;;;29.85;34.42;100802.06;4985394;28;20069;-78
2021/07/08 11:28:32;;;;;;;0.35;0.35;;;;;;;29.75;34.80;100801.53;4964606;28;20039;-79
2021/07/08 11:30:59;;;;;;;1.20;0.50;;;;;;;29.81;33.96;100809.63;4960181;28;20030;-80
2021/07/08 11:33:24;;;;;;;0.38;0.38;;;;;;;30.04;35.24;100803.81;4966613;28;20030;-79
2021/07/08 11:35:56;;;;;;;0.30;0.30;;;;;;;30.40;33.62;100804.88;4961870;28;20039;-79
2021/07/08 11:38:25;;;;;;;0.47;0.30;;;;;;;30.68;34.09;100811.94;4953347;28;20027;-77
2021/07/08 11:40:53;;;;;;;0.10;0.10;;;;;;;31.02;34.71;100800.41;4953741;29;20019;-79
2021/07/08 11:43:32;;;;;;;0.30;0.30;;;;;;;31.46;32.93;100813.44;4997466;28;20029;-79
2021/07/08 11:46:11;;;;;;;0.30;0.30;;;;;;;31.30;31.66;100807.34;4972756;28;20015;-77
2021/07/08 11:48:43;;;;;;;0.10;0.10;;;;;;;31.02;32.39;100803.22;4973788;28;20019;-78
2021/07/08 11:51:19;;;;;;;0.40;0.40;;;;;;;30.79;32.05;100811.97;4979549;28;20014;-78
2021/07/08 11:53:46;;;;;;;0.20;0.20;;;;;;;30.75;32.68;100803.50;4982962;28;20059;-78
2021/07/08 11:56:14;;;;;;;0.47;0.30;;;;;;;31.04;32.38;100797.97;4970904;28;20017;-77
2021/07/08 11:58:45;;;;;;;0.20;0.20;;;;;;;31.39;32.39;100809.78;4973768;28;20030;-79
2021/07/08 12:01:13;;;;;;;0.20;0.20;;;;;;;31.88;32.84;100793.31;4983710;28;20116;-78
2021/07/08 12:03:50;;;;;;;0.60;0.40;;;;;;;32.43;30.13;100809.84;4988633;28;20421;-78
2021/07/08 12:06:20;;;;;;;0.50;0.20;;;;;;;32.69;30.19;100797.25;4986415;28;20019;-74
2021/07/08 12:08:50;;;;;;;0.38;0.32;;;;;;;33.11;29.45;100806.00;4977868;28;20007;-79
2021/07/08 12:11:32;;;;;;;0.55;0.32;;;;;;;33.47;28.18;100807.81;4977804;28;20118;-78
2021/07/08 12:14:03;;;;;;;3.35;0.40;;;;;;;34.12;27.82;100810.19;4984577;28;20030;-81
2021/07/08 12:16:34;;;;;;;0.30;0.30;;;;;;;34.16;27.06;100805.28;4974319;28;20014;-78
2021/07/08 12:19:06;;;;;;;0.10;0.10;;;;;;;34.14;27.65;100804.88;4982066;28;20019;-77
2021/07/08 12:21:37;;;;;;;0.40;0.40;;;;;;;34.18;26.46;100797.94;4966670;28;20037;-79
2021/07/08 12:24:08;;;;;;;0.25;0.25;;;;;;;34.19;26.06;100791.06;4971792;28;20018;-79
2021/07/08 12:26:42;;;;;;;0.20;0.17;;;;;;;34.57;26.58;100801.63;4977749;28;20014;-79
2021/07/08 12:29:14;;;;;;;0.40;0.40;;;;;;;34.79;25.60;100807.91;4985117;28;20043;-79
2021/07/08 12:31:44;;;;;;;0.20;0.20;;;;;;;34.64;25.38;100800.72;4969760;28;20037;-79
2021/07/08 12:34:09;;;;;;;0.15;0.10;;;;;;;34.44;26.48;100799.31;4971426;28;20011;-79
2021/07/08 12:36:34;;;;;;;0.30;0.10;;;;;;;34.44;26.70;100798.53;4977524;28;20106;-79
2021/07/08 12:39:00;;;;;;;0.20;0.17;;;;;;;34.22;26.70;100797.94;4979260;28;20061;-81
2021/07/08 12:41:27;;;;;;;0.30;0.20;;;;;;;33.75;26.50;100804.03;4975493;28;20041;-79
2021/07/08 12:43:53;;;;;;;0.25;0.25;;;;;;;33.06;26.99;100787.41;4971016;28;20058;-79
2021/07/08 12:46:19;;;;;;;0.20;0.20;;;;;;;32.63;27.09;100807.34;4952753;29;20011;-80
2021/07/08 12:48:44;;;;;;;0.30;0.30;;;;;;;32.22;27.88;100802.22;4985217;28;20778;-81
2021/07/08 12:51:10;;;;;;;0.30;0.30;;;;;;;31.89;28.51;100783.63;4949493;28;20086;-80
2021/07/08 12:53:44;;;;;;;0.28;0.28;;;;;;;31.93;28.88;100793.72;4976296;28;20047;-78
2021/07/08 12:56:10;;;;;;;0.63;0.30;;;;;;;33.61;28.96;100806.94;4968993;28;20034;-77
2021/07/08 12:58:37;;;;;;;0.10;0.10;;;;;;;36.19;29.01;100810.72;4971877;28;20272;-82
2021/07/08 13:01:12;;;;;;;0.20;0.20;;;;;;;38.06;25.02;100818.09;4987120;28;20100;-80
2021/07/08 13:03:40;;;;;;;;;;;;;;;38.64;21.69;100810.84;4982196;28;20041;-79
2021/07/08 13:06:11;;;;;;;0.20;0.20;;;;;;;38.12;22.70;100811.84;4973961;28;19965;-80
2021/07/08 13:08:37;;;;;;;2.63;0.20;;;;;;;37.50;22.16;100803.97;4971564;28;20062;-80
2021/07/08 13:11:11;;;;;;;0.30;0.20;;;;;;;36.69;22.62;100798.34;4984576;28;20034;-81
2021/07/08 13:13:40;;;;;;;0.10;0.10;;;;;;;35.99;23.12;100814.28;4991188;28;20061;-79
2021/07/08 13:16:19;;;;;;;0.13;0.13;;;;;;;35.28;23.58;100805.66;4977287;28;20035;-78
2021/07/08 13:18:48;;;;;;;0.10;0.10;;;;;;;34.45;24.64;100800.16;4979140;28;20022;-79
2021/07/08 13:21:18;;;;;;;0.15;0.15;;;;;;;33.82;25.36;100806.81;4974190;28;20027;-78
2021/07/08 13:23:45;;;;;;;0.47;0.30;;;;;;;32.91;25.84;100804.88;4970285;28;20827;-80
2021/07/08 13:26:12;;;;;;;0.20;0.20;;;;;;;31.99;27.23;100805.44;4988208;28;20116;-80
2021/07/08 13:28:42;;;;;;;0.52;0.20;;;;;;;31.13;28.16;100803.25;4972056;28;20405;-79
2021/07/08 13:31:23;;;;;;;0.20;0.20;;;;;;;30.40;28.37;100796.44;4972872;28;20039;-78
2021/07/08 13:34:00;;;;;;;0.38;0.35;;;;;;;29.65;29.53;100793.78;4970157;28;20094;-79
2021/07/08 13:36:36;;;;;;;0.30;0.30;;;;;;;29.12;30.74;100785.56;4966896;28;20023;-80
2021/07/08 13:39:07;;;;;;;0.40;0.40;;;;;;;28.84;31.83;100806.53;4973046;28;20022;-79